Time;durP1;ratioP1;P1;durP2;ratioP2;P2;SDS_P1;SDS_P2;PMS_P1;PMS_P2;Temp;Humidity;BMP_temperature;BMP_pressure;BME280_temperature;BME280_humidity;BME280_pressure;Samples;Min_cycle;Max_cycle;Signal;HPM_P1;HPM_P2
2022/07/04 00:00:52;;;;;;;;;;;;;;;22.72;60.52;95133.56;5058289;28;948;-72
2022/07/04 00:03:18;;;;;;;;;;;;;;;22.69;60.66;95134.44;5057442;28;1910;-72
2022/07/04 00:05:46;;;;;;;;;;;;;;;22.69;60.57;95128.81;5057811;28;1256;-72
2022/07/04 00:08:13;;;;;;;;;;;;;;;22.69;60.44;95130.84;5057789;28;1231;-73
2022/07/04 00:10:39;;;;;;;;;;;;;;;22.66;58.72;95126.88;5057062;28;1184;-73
2022/07/04 00:13:06;;;;;;;;;;;;;;;22.70;56.88;95127.59;5057253;28;1351;-72
2022/07/04 00:15:32;;;;;;;;;;;;;;;22.74;55.56;95121.91;5057567;28;1023;-72
2022/07/04 00:17:59;;;;;;;;;;;;;;;22.78;54.47;95134.69;5056645;28;1262;-72
2022/07/04 00:20:26;;;;;;;;;;;;;;;22.82;53.66;95143.03;5057905;28;963;-73
2022/07/04 00:22:54;;;;;;;;;;;;;;;22.80;53.69;95143.50;5057678;28;1902;-73
2022/07/04 00:25:20;;;;;;;;;;;;;;;22.79;53.32;95138.28;5057520;28;1011;-73
2022/07/04 00:27:47;;;;;;;;;;;;;;;22.76;52.99;95133.50;5056624;28;1272;-73
2022/07/04 00:30:14;;;;;;;;;;;;;;;22.72;52.93;95132.78;5057537;28;1193;-73
2022/07/04 00:32:40;;;;;;;;;;;;;;;22.70;52.95;95124.78;5057679;28;1007;-73
2022/07/04 00:35:07;;;;;;;;;;;;;;;22.70;53.00;95107.13;5056712;28;1255;-73
2022/07/04 00:37:33;;;;;;;;;;;;;;;22.68;52.84;95113.19;5056643;28;1088;-73
2022/07/04 00:40:01;;;;;;;;;;;;;;;22.68;52.62;95106.75;5057471;28;943;-73
2022/07/04 00:42:28;;;;;;;;;;;;;;;22.69;52.32;95114.75;5056853;28;1918;-73
2022/07/04 00:44:55;;;;;;;;;;;;;;;22.67;52.31;95111.59;5056562;28;1146;-73
2022/07/04 00:47:21;;;;;;;;;;;;;;;22.67;51.77;95108.78;5057128;28;1034;-72
2022/07/04 00:49:47;;;;;;;;;;;;;;;22.65;51.83;95121.69;5057254;28;951;-72
2022/07/04 00:52:17;;;;;;;;;;;;;;;22.59;51.76;95116.56;5056594;28;1127;-73
2022/07/04 00:54:43;;;;;;;;;;;;;;;22.56;52.11;95119.44;5057217;28;1003;-73
2022/07/04 00:57:11;;;;;;;;;;;;;;;22.53;52.15;95112.66;5056409;28;1056;-73
2022/07/04 00:59:38;;;;;;;;;;;;;;;22.51;52.06;95103.06;5056226;28;1046;-72
2022/07/04 01:02:04;;;;;;;;;;;;;;;22.49;52.06;95108.31;5056796;28;1039;-72
2022/07/04 01:04:31;;;;;;;;;;;;;;;22.47;51.96;95111.56;5056958;28;1910;-72
2022/07/04 01:06:58;;;;;;;;;;;;;;;22.42;52.18;95120.47;5056186;28;1266;-72
2022/07/04 01:09:24;;;;;;;;;;;;;;;22.40;52.18;95120.09;5056665;28;1086;-72
2022/07/04 01:11:51;;;;;;;;;;;;;;;22.37;52.97;95111.75;5056013;28;1262;-72
2022/07/04 01:14:19;;;;;;;;;;;;;;;22.29;52.71;95117.47;5056334;28;1284;-72
2022/07/04 01:16:45;;;;;;;;;;;;;;;22.32;53.23;95121.47;5056627;28;1185;-72
2022/07/04 01:19:12;;;;;;;;;;;;;;;22.32;52.78;95125.06;5056878;28;971;-72
2022/07/04 01:21:40;;;;;;;;;;;;;;;22.28;52.62;95127.16;5055697;28;1151;-73
2022/07/04 01:24:07;;;;;;;;;;;;;;;22.27;52.25;95121.97;5055760;28;1914;-73
2022/07/04 01:26:33;;;;;;;;;;;;;;;22.22;52.44;95117.63;5055918;28;1248;-73
2022/07/04 01:29:00;;;;;;;;;;;;;;;22.20;52.07;95124.91;5055993;28;1132;-72
2022/07/04 01:31:27;;;;;;;;;;;;;;;22.16;52.03;95116.53;5056678;28;1006;-72
2022/07/04 01:33:53;;;;;;;;;;;;;;;22.16;52.02;95110.13;5055803;28;1309;-72
2022/07/04 01:36:20;;;;;;;;;;;;;;;22.15;52.39;95116.94;5056133;28;1286;-72
2022/07/04 01:38:48;;;;;;;;;;;;;;;22.15;52.10;95119.75;5056476;28;1029;-72
2022/07/04 01:41:14;;;;;;;;;;;;;;;22.11;52.07;95119.78;5056527;28;990;-72
2022/07/04 01:43:40;;;;;;;;;;;;;;;;;;5056390;28;1919;-72
2022/07/04 01:46:07;;;;;;;;;;;;;;;;;;5056220;28;1014;-72
2022/07/04 01:48:33;;;;;;;;;;;;;;;22.04;53.41;95125.50;5055688;28;1366;-72
2022/07/04 01:51:00;;;;;;;;;;;;;;;22.03;53.19;95129.53;5056165;28;1002;-73
2022/07/04 01:53:27;;;;;;;;;;;;;;;22.00;52.68;95128.38;5055485;28;1080;-73
2022/07/04 01:55:55;;;;;;;;;;;;;;;21.96;52.48;95124.03;5055203;28;1071;-73
2022/07/04 01:58:21;;;;;;;;;;;;;;;21.91;52.03;95125.31;5056269;28;1104;-73
2022/07/04 02:03:32;;;;;;;;;;;;;;;21.83;53.44;95123.84;5060206;28;1902;-73
2022/07/04 02:05:58;;;;;;;;;;;;;;;21.78;54.74;95122.31;5060179;28;1026;-73
2022/07/04 02:09:14;;;;;;;;;;;;;;;21.76;55.38;95124.75;5060381;28;998;-73
2022/07/04 02:11:13;;;;;;;;;;;;;;;21.74;55.98;95140.44;5059918;28;1015;-73
2022/07/04 02:13:38;;;;;;;;;;;;;;;21.71;56.14;95132.84;5060372;28;1241;-73
2022/07/04 02:16:05;;;;;;;;;;;;;;;21.68;56.49;95133.69;5060572;28;1215;-73
2022/07/04 02:18:31;;;;;;;;;;;;;;;21.65;56.85;95138.16;5060368;28;768;-73
2022/07/04 02:20:58;;;;;;;;;;;;;;;21.59;57.03;95137.81;5059322;28;1195;-73
2022/07/04 02:23:24;;;;;;;;;;;;;;;21.53;57.04;95138.72;5059681;28;1906;-72
2022/07/04 02:25:51;;;;;;;;;;;;;;;21.48;56.87;95136.41;5059244;28;1213;-72
2022/07/04 02:28:19;;;;;;;;;;;;;;;21.46;57.71;95130.41;5059660;28;1199;-72
2022/07/04 02:30:45;;;;;;;;;;;;;;;21.44;57.35;95138.47;5059282;28;1220;-72
2022/07/04 02:33:12;;;;;;;;;;;;;;;21.42;57.06;95136.06;5059694;28;865;-72
2022/07/04 02:35:39;;;;;;;;;;;;;;;21.43;57.16;95136.88;5059837;28;1037;-72
2022/07/04 02:38:05;;;;;;;;;;;;;;;21.43;56.58;95134.88;5059812;28;979;-72
2022/07/04 02:40:32;;;;;;;;;;;;;;;21.44;56.69;95132.84;5060064;28;1060;-72
2022/07/04 02:42:59;;;;;;;;;;;;;;;21.41;56.45;95137.28;5059339;28;1897;-72
2022/07/04 02:45:26;;;;;;;;;;;;;;;21.39;56.60;95145.34;5058818;28;1214;-72
2022/07/04 02:47:53;;;;;;;;;;;;;;;21.33;57.03;95142.19;5058955;28;1143;-72
2022/07/04 02:50:19;;;;;;;;;;;;;;;21.30;57.02;95139.41;5059315;28;1043;-73
2022/07/04 02:52:46;;;;;;;;;;;;;;;21.24;57.50;95150.31;5059636;28;959;-72
2022/07/04 02:55:13;;;;;;;;;;;;;;;21.19;57.71;95147.97;5058633;28;1055;-72
2022/07/04 02:57:39;;;;;;;;;;;;;;;21.20;57.66;95154.34;5059136;28;1069;-72
2022/07/04 03:00:06;;;;;;;;;;;;;;;21.18;56.96;95157.59;5058884;28;1096;-72
2022/07/04 03:02:34;;;;;;;;;;;;;;;21.16;57.63;95157.22;5058101;28;1161;-72
2022/07/04 03:05:01;;;;;;;;;;;;;;;21.11;57.79;95164.06;5058895;28;1913;-71
2022/07/04 03:07:27;;;;;;;;;;;;;;;21.08;58.35;95152.91;5059271;28;948;-71
2022/07/04 03:09:54;;;;;;;;;;;;;;;21.10;58.28;95161.72;5058262;28;1060;-72
2022/07/04 03:12:20;;;;;;;;;;;;;;;21.11;58.20;95154.88;5058846;28;1007;-72
2022/07/04 03:14:47;;;;;;;;;;;;;;;21.08;58.41;95155.72;5058458;28;1080;-72
2022/07/04 03:17:13;;;;;;;;;;;;;;;21.07;58.49;95165.34;5058707;28;1342;-71
2022/07/04 03:19:41;;;;;;;;;;;;;;;21.08;58.43;95152.91;5058100;28;1050;-71
2022/07/04 03:22:08;;;;;;;;;;;;;;;21.05;57.70;95160.13;5058076;28;1161;-71
2022/07/04 03:24:34;;;;;;;;;;;;;;;21.03;58.29;95165.38;5058632;28;1979;-71
2022/07/04 03:27:01;;;;;;;;;;;;;;;21.02;57.32;95157.38;5058943;28;935;-73
2022/07/04 03:29:27;;;;;;;;;;;;;;;21.01;57.87;95158.59;5058532;28;1146;-73
2022/07/04 03:31:54;;;;;;;;;;;;;;;20.97;57.74;95158.63;5058869;28;1151;-73
2022/07/04 03:34:20;;;;;;;;;;;;;;;20.94;57.72;95164.28;5058549;28;966;-73
2022/07/04 03:36:48;;;;;;;;;;;;;;;20.89;58.35;95163.53;5058865;28;1010;-73
2022/07/04 03:39:15;;;;;;;;;;;;;;;20.81;59.16;95164.84;5057770;28;1139;-73
2022/07/04 03:41:41;;;;;;;;;;;;;;;20.77;59.58;95168.88;5057711;28;1345;-73
2022/07/04 03:44:08;;;;;;;;;;;;;;;20.79;59.80;95164.44;5057913;28;1985;-73
2022/07/04 03:46:34;;;;;;;;;;;;;;;20.79;59.77;95163.66;5057789;28;1187;-73
2022/07/04 03:49:01;;;;;;;;;;;;;;;20.79;60.33;95164.44;5058338;28;1058;-73
2022/07/04 03:51:27;;;;;;;;;;;;;;;20.82;60.53;95163.63;5058305;28;943;-73
2022/07/04 03:53:55;;;;;;;;;;;;;;;20.81;59.49;95161.25;5058015;28;1235;-73
2022/07/04 03:56:22;;;;;;;;;;;;;;;20.78;58.92;95154.44;5058424;28;1059;-72
2022/07/04 03:58:49;;;;;;;;;;;;;;;20.78;59.61;95162.06;5057502;28;1068;-72
2022/07/04 04:01:16;;;;;;;;;;;;;;;20.79;59.75;95164.44;5058039;28;1023;-73
2022/07/04 04:06:26;;;;;;;;;;;;;;;20.86;60.01;95163.56;5058917;28;828;-71
2022/07/04 04:08:53;;;;;;;;;;;;;;;20.90;60.24;95164.31;5057540;28;1492;-73
2022/07/04 04:11:20;;;;;;;;;;;;;;;20.90;59.98;95162.31;5057913;28;1015;-72
2022/07/04 04:13:47;;;;;;;;;;;;;;;20.91;60.21;95163.09;5058080;28;717;-73
2022/07/04 04:16:14;;;;;;;;;;;;;;;20.92;60.60;95164.72;5057119;28;1449;-73
2022/07/04 04:18:40;;;;;;;;;;;;;;;20.91;60.61;95161.13;5057110;28;1054;-73
2022/07/04 04:21:07;;;;;;;;;;;;;;;20.90;60.83;95165.13;5057103;28;1361;-73
2022/07/04 04:23:33;;;;;;;;;;;;;;;20.87;61.04;95167.97;5057190;28;2005;-73
2022/07/04 04:26:00;;;;;;;;;;;;;;;20.88;61.45;95164.75;5057811;28;982;-73
2022/07/04 04:28:28;;;;;;;;;;;;;;;20.90;61.68;95172.72;5056550;28;1188;-73
2022/07/04 04:30:55;;;;;;;;;;;;;;;20.86;60.66;95166.38;5056786;28;1059;-73
2022/07/04 04:33:21;;;;;;;;;;;;;;;20.86;60.42;95175.56;5057601;28;1044;-73
2022/07/04 04:35:48;;;;;;;;;;;;;;;20.88;61.43;95170.38;5057645;28;935;-74
2022/07/04 04:38:15;;;;;;;;;;;;;;;20.89;61.33;95176.75;5057548;28;1023;-74
2022/07/04 04:40:41;;;;;;;;;;;;;;;20.91;60.86;95179.91;5057226;28;1022;-74
2022/07/04 04:43:08;;;;;;;;;;;;;;;20.88;60.38;95180.78;5056276;28;1169;-73
2022/07/04 04:45:36;;;;;;;;;;;;;;;20.87;59.75;95177.16;5056439;28;1905;-73
2022/07/04 04:48:02;;;;;;;;;;;;;;;20.86;60.35;95180.41;5057067;28;1123;-73
2022/07/04 04:50:29;;;;;;;;;;;;;;;20.90;60.22;95184.75;5056544;28;1177;-73
2022/07/04 04:52:57;;;;;;;;;;;;;;;20.86;58.56;95184.00;5056670;28;1279;-73
2022/07/04 04:55:24;;;;;;;;;;;;;;;20.85;58.08;95181.63;5056410;28;1058;-73
2022/07/04 04:57:50;;;;;;;;;;;;;;;20.85;57.85;95182.41;5056279;28;1147;-73
2022/07/04 05:00:17;;;;;;;;;;;;;;;20.87;56.71;95179.97;5057260;28;987;-73
2022/07/04 05:02:45;;;;;;;;;;;;;;;20.90;56.41;95170.72;5057096;28;947;-73
2022/07/04 05:05:12;;;;;;;;;;;;;;;20.95;56.96;95175.06;5057043;28;2031;-73
2022/07/04 05:07:38;;;;;;;;;;;;;;;21.04;57.78;95174.59;5055731;28;1119;-73
2022/07/04 05:10:05;;;;;;;;;;;;;;;21.12;56.76;95174.06;5057017;28;983;-73
2022/07/04 05:12:32;;;;;;;;;;;;;;;21.14;56.46;95168.06;5056414;28;1311;-73
2022/07/04 05:14:59;;;;;;;;;;;;;;;21.16;56.32;95162.81;5056060;28;1437;-73
2022/07/04 05:17:26;;;;;;;;;;;;;;;21.16;56.70;95174.03;5056868;28;1316;-73
2022/07/04 05:19:54;;;;;;;;;;;;;;;21.15;56.75;95166.84;5056827;28;994;-73
2022/07/04 05:22:20;;;;;;;;;;;;;;;21.14;56.24;95179.28;5057131;28;970;-73
2022/07/04 05:24:47;;;;;;;;;;;;;;;21.14;56.93;95168.84;5055721;28;1906;-73
2022/07/04 05:27:13;;;;;;;;;;;;;;;21.15;57.07;95173.25;5056491;28;982;-73
2022/07/04 05:29:40;;;;;;;;;;;;;;;21.15;57.21;95166.84;5055400;28;1055;-73
2022/07/04 05:32:07;;;;;;;;;;;;;;;21.11;56.79;95174.50;5055878;28;1165;-73
2022/07/04 05:34:33;;;;;;;;;;;;;;;21.06;55.32;95172.16;5055344;28;1090;-73
2022/07/04 05:37:02;;;;;;;;;;;;;;;21.07;55.26;95170.94;5055676;28;1157;-73
2022/07/04 05:39:29;;;;;;;;;;;;;;;21.08;56.08;95170.53;5056166;28;1058;-72
2022/07/04 05:41:55;;;;;;;;;;;;;;;21.12;56.33;95173.28;5055992;28;1258;-73
2022/07/04 05:44:22;;;;;;;;;;;;;;;21.21;56.66;95176.38;5055682;28;1983;-74
2022/07/04 05:46:49;;;;;;;;;;;;;;;21.24;56.61;95172.75;5056229;28;1016;-73
2022/07/04 05:49:15;;;;;;;;;;;;;;;21.24;56.71;95169.13;5056415;28;998;-74
2022/07/04 05:51:42;;;;;;;;;;;;;;;21.29;56.93;95179.91;5055184;28;1067;-73
2022/07/04 05:54:10;;;;;;;;;;;;;;;21.32;56.78;95167.84;5056220;28;1191;-73
2022/07/04 05:56:38;;;;;;;;;;;;;;;21.30;56.59;95178.69;5056362;28;1049;-73
2022/07/04 05:59:04;;;;;;;;;;;;;;;21.27;57.00;95173.91;5056327;28;1052;-73
2022/07/04 06:01:30;;;;;;;;;;;;;;;21.31;56.92;95174.66;5056336;28;936;-74
2022/07/04 06:03:57;;;;;;;;;;;;;;;21.33;56.16;95173.06;5056280;28;1971;-74
2022/07/04 06:06:23;;;;;;;;;;;;;;;21.36;56.48;95174.22;5055414;28;1483;-74
2022/07/04 06:08:50;;;;;;;;;;;;;;;21.43;56.20;95171.34;5056468;28;1207;-74
2022/07/04 06:11:18;;;;;;;;;;;;;;;21.45;55.76;95174.50;5055129;28;1297;-72
2022/07/04 06:13:45;;;;;;;;;;;;;;;21.51;56.64;95180.44;5055236;28;1115;-73
2022/07/04 06:16:11;;;;;;;;;;;;;;;21.58;57.28;95180.34;5056587;28;1160;-74
2022/07/04 06:18:38;;;;;;;;;;;;;;;21.65;56.76;95176.66;5056013;28;1336;-74
2022/07/04 06:21:05;;;;;;;;;;;;;;;21.74;56.94;95179.72;5056242;28;825;-72
2022/07/04 06:23:32;;;;;;;;;;;;;;;21.79;55.93;95166.03;5055866;28;1043;-72
2022/07/04 06:25:58;;;;;;;;;;;;;;;21.88;56.08;95176.72;5055127;28;1914;-72
2022/07/04 06:28:26;;;;;;;;;;;;;;;21.94;54.44;95177.84;5056117;28;1029;-72
2022/07/04 06:30:53;;;;;;;;;;;;;;;21.96;53.60;95171.78;5056209;28;1089;-72
2022/07/04 06:33:19;;;;;;;;;;;;;;;21.93;52.18;95176.22;5056006;28;963;-72
2022/07/04 06:35:45;;;;;;;;;;;;;;;21.89;53.24;95169.88;5055917;28;1046;-72
2022/07/04 06:38:12;;;;;;;;;;;;;;;21.88;52.82;95166.28;5056034;28;986;-72
2022/07/04 06:40:38;;;;;;;;;;;;;;;21.89;52.82;95172.69;5055956;28;1042;-72
2022/07/04 06:43:05;;;;;;;;;;;;;;;21.91;53.36;95167.44;5056004;28;928;-72
2022/07/04 06:45:33;;;;;;;;;;;;;;;21.92;53.21;95166.22;5056385;28;1910;-73
2022/07/04 06:48:00;;;;;;;;;;;;;;;21.98;53.91;95160.94;5059882;28;984;-73
2022/07/04 06:50:27;;;;;;;;;;;;;;;22.06;53.65;95163.19;5058761;28;1067;-73
2022/07/04 06:52:53;;;;;;;;;;;;;;;22.11;53.76;95159.09;5059507;28;963;-73
2022/07/04 06:55:20;;;;;;;;;;;;;;;22.17;52.63;95159.44;5059536;28;1047;-73
2022/07/04 06:57:46;;;;;;;;;;;;;;;22.28;53.85;95158.03;5058541;28;1112;-73
2022/07/04 07:00:13;;;;;;;;;;;;;;;22.34;52.74;95153.53;5059438;28;942;-73
2022/07/04 07:02:41;;;;;;;;;;;;;;;22.34;51.60;95147.13;5058179;28;1251;-73
2022/07/04 07:05:08;;;;;;;;;;;;;;;22.43;53.68;95147.34;5059003;28;1973;-73
2022/07/04 07:07:35;;;;;;;;;;;;;;;22.52;52.44;95142.00;5058404;28;1104;-72
2022/07/04 07:10:05;;;;;;;;;;;;;;;22.50;52.66;95141.59;5058416;28;1282;-72
2022/07/04 07:12:32;;;;;;;;;;;;;;;22.53;52.97;95143.56;5058591;28;1212;-73
2022/07/04 07:14:59;;;;;;;;;;;;;;;22.65;53.55;95144.16;5058538;28;1121;-74
2022/07/04 07:17:25;;;;;;;;;;;;;;;22.69;50.21;95136.44;5058768;28;1347;-74
2022/07/04 07:19:53;;;;;;;;;;;;;;;22.69;49.90;95142.06;5059081;28;927;-74
2022/07/04 07:22:20;;;;;;;;;;;;;;;22.68;49.46;95132.84;5058148;28;1064;-74
2022/07/04 07:24:46;;;;;;;;;;;;;;;22.70;50.07;95133.22;5059212;28;1959;-74
2022/07/04 07:27:13;;;;;;;;;;;;;;;22.87;50.40;95136.13;5058669;28;1105;-73
2022/07/04 07:29:39;;;;;;;;;;;;;;;22.91;49.55;95128.41;5058919;28;971;-73
2022/07/04 07:32:06;;;;;;;;;;;;;;;22.97;50.73;95133.13;5059221;28;1002;-71
2022/07/04 07:34:33;;;;;;;;;;;;;;;23.11;50.65;95137.69;5058192;28;1138;-71
2022/07/04 07:37:01;;;;;;;;;;;;;;;23.13;50.34;95137.22;5057815;28;1123;-71
2022/07/04 07:39:27;;;;;;;;;;;;;;;23.08;50.69;95134.94;5058689;28;955;-71
2022/07/04 07:41:54;;;;;;;;;;;;;;;23.08;50.83;95123.69;5057994;28;1244;-71
2022/07/04 07:44:20;;;;;;;;;;;;;;;23.11;51.19;95134.88;5057706;28;1137;-71
2022/07/04 07:46:47;;;;;;;;;;;;;;;23.16;50.93;95131.53;5057789;28;1964;-71
2022/07/04 07:49:14;;;;;;;;;;;;;;;23.20;50.71;95128.66;5058570;28;1018;-73
2022/07/04 07:51:40;;;;;;;;;;;;;;;23.23;50.70;95124.97;5058491;28;1135;-73
2022/07/04 07:54:08;;;;;;;;;;;;;;;23.23;50.24;95120.13;5057759;28;1285;-73
2022/07/04 07:56:35;;;;;;;;;;;;;;;23.24;49.36;95118.94;5056877;28;1055;-73
2022/07/04 07:59:01;;;;;;;;;;;;;;;23.24;50.48;95121.75;5057703;28;1274;-73
2022/07/04 08:01:28;;;;;;;;;;;;;;;23.29;50.17;95117.63;5057189;28;1243;-73
2022/07/04 08:06:41;;;;;;;;;;;;;;;23.43;49.46;95114.50;5040318;28;1981;-73
2022/07/04 08:09:09;;;;;;;;;;;;;;;23.41;49.70;95114.13;5057342;28;1167;-73
2022/07/04 08:11:35;;;;;;;;;;;;;;;23.44;49.94;95115.28;5056820;28;1046;-73
2022/07/04 08:14:02;;;;;;;;;;;;;;;23.42;50.11;95118.56;5057765;28;950;-73
2022/07/04 08:16:28;;;;;;;;;;;;;;;23.45;49.92;95114.06;5056758;28;1254;-73
2022/07/04 08:18:55;;;;;;;;;;;;;;;23.48;50.19;95116.00;5057018;28;1243;-73
2022/07/04 08:21:22;;;;;;;;;;;;;;;23.48;50.12;95110.38;5056690;28;1522;-73
2022/07/04 08:23:48;;;;;;;;;;;;;;;23.52;49.96;95111.06;5056971;28;1399;-73
2022/07/04 08:26:16;;;;;;;;;;;;;;;23.55;50.13;95107.41;5057410;28;1982;-74
2022/07/04 08:28:43;;;;;;;;;;;;;;;23.60;50.22;95098.41;5057053;28;1060;-73
2022/07/04 08:31:10;;;;;;;;;;;;;;;23.74;50.00;95098.13;5056861;28;1115;-74
2022/07/04 08:33:36;;;;;;;;;;;;;;;23.77;50.60;95099.28;5056632;28;1115;-73
2022/07/04 08:36:03;;;;;;;;;;;;;;;23.73;50.10;95101.38;5056927;28;1222;-73
2022/07/04 08:38:30;;;;;;;;;;;;;;;23.71;50.59;95101.03;5056585;28;1192;-74
2022/07/04 08:40:57;;;;;;;;;;;;;;;23.75;50.85;95094.09;5056563;28;1080;-74
2022/07/04 08:43:26;;;;;;;;;;;;;;;23.87;50.64;95092.59;5056605;28;1262;-74
2022/07/04 08:45:53;;;;;;;;;;;;;;;23.93;52.69;95087.22;5056586;28;1886;-74
2022/07/04 08:48:21;;;;;;;;;;;;;;;23.95;50.76;95085.56;5057414;28;1062;-74
2022/07/04 08:50:48;;;;;;;;;;;;;;;23.91;51.38;95087.69;5057540;28;951;-71
2022/07/04 08:53:17;;;;;;;;;;;;;;;23.98;51.84;95090.31;5056795;28;1056;-74
2022/07/04 08:58:30;;;;;;;;;;;;;;;24.06;51.97;95090.16;5089657;28;1179;-74
2022/07/04 09:00:57;;;;;;;;;;;;;;;24.19;51.46;95091.81;5057246;28;979;-74
2022/07/04 09:03:23;;;;;;;;;;;;;;;24.17;50.67;95087.84;5056022;28;1138;-74
2022/07/04 09:05:50;;;;;;;;;;;;;;;24.20;51.06;95082.13;5057148;28;1902;-74
2022/07/04 09:08:16;;;;;;;;;;;;;;;24.31;53.15;95087.47;5056157;28;1098;-74
2022/07/04 09:10:44;;;;;;;;;;;;;;;24.42;51.52;95088.03;5056015;28;1137;-74
2022/07/04 09:13:11;;;;;;;;;;;;;;;24.56;51.00;95088.91;5056214;28;1142;-74
2022/07/04 09:15:39;;;;;;;;;;;;;;;24.59;50.95;95079.56;5055992;28;1182;-74
2022/07/04 09:18:06;;;;;;;;;;;;;;;24.57;50.34;95087.66;5056838;28;1309;-75
2022/07/04 09:20:33;;;;;;;;;;;;;;;24.78;52.34;95083.47;5056085;28;1271;-75
2022/07/04 09:22:59;;;;;;;;;;;;;;;24.93;52.14;95087.47;5057061;28;939;-75
2022/07/04 09:25:27;;;;;;;;;;;;;;;24.92;51.47;95078.22;5056709;28;1906;-75
2022/07/04 09:27:54;;;;;;;;;;;;;;;24.93;50.42;95079.00;5055556;28;1235;-75
2022/07/04 09:30:21;;;;;;;;;;;;;;;24.96;49.53;95083.75;5056871;28;953;-75
2022/07/04 09:32:51;;;;;;;;;;;;;;;25.00;49.72;95090.09;5055843;28;1070;-75
2022/07/04 09:35:18;;;;;;;;;;;;;;;25.17;47.80;95077.53;5056367;28;1046;-75
2022/07/04 09:37:45;;;;;;;;;;;;;;;25.31;48.39;95065.03;5056326;28;1007;-75
2022/07/04 09:40:22;;;;;;;;;;;;;;;25.37;48.57;95063.22;5055771;28;1296;-74
2022/07/04 09:42:49;;;;;;;;;;;;;;;25.36;48.76;95066.50;5055782;28;1445;-75
2022/07/04 09:45:16;;;;;;;;;;;;;;;25.30;48.77;95057.78;5055399;28;1989;-75
2022/07/04 09:47:45;;;;;;;;;;;;;;;25.35;47.86;95056.44;5055230;28;1240;-75
2022/07/04 09:50:15;;;;;;;;;;;;;;;25.53;48.16;95058.69;5055838;28;1275;-75
2022/07/04 09:52:49;;;;;;;;;;;;;;;25.61;48.80;95062.91;5055328;28;1028;-75
2022/07/04 09:55:25;;;;;;;;;;;;;;;25.69;50.83;95058.59;5055448;28;1265;-75
2022/07/04 09:57:52;;;;;;;;;;;;;;;25.79;49.94;95068.03;5056446;28;991;-75
2022/07/04 10:00:23;;;;;;;;;;;;;;;25.75;47.85;95062.44;5055649;28;1374;-75
2022/07/04 10:02:49;;;;;;;;;;;;;;;25.84;49.45;95064.63;5055402;28;1202;-75
2022/07/04 10:05:21;;;;;;;;;;;;;;;25.97;48.51;95062.56;5055330;28;1959;-75
2022/07/04 10:07:48;;;;;;;;;;;;;;;26.11;49.75;95062.09;5055459;28;1080;-75
2022/07/04 10:10:22;;;;;;;;;;;;;;;26.21;49.24;95060.16;5055562;28;1254;-75
2022/07/04 10:12:49;;;;;;;;;;;;;;;26.28;48.46;95054.25;5055293;28;1258;-75
2022/07/04 10:15:16;;;;;;;;;;;;;;;26.38;48.29;95061.59;5055367;28;1060;-75
2022/07/04 10:17:42;;;;;;;;;;;;;;;26.37;49.10;95060.00;5055220;28;1192;-75
2022/07/04 10:20:09;;;;;;;;;;;;;;;26.22;47.61;95060.94;5056464;28;1391;-75
2022/07/04 10:22:37;;;;;;;;;;;;;;;26.13;47.98;95056.78;5059116;28;1413;-75
2022/07/04 10:25:04;;;;;;;;;;;;;;;26.03;48.97;95057.13;5059468;28;1215;-75
2022/07/04 10:27:31;;;;;;;;;;;;;;;26.29;48.60;95055.03;5058800;28;1905;-75
2022/07/04 10:29:57;;;;;;;;;;;;;;;26.38;47.24;95049.50;5059078;28;1043;-75
2022/07/04 10:32:24;;;;;;;;;;;;;;;26.32;47.05;95059.78;5059360;28;1391;-75
2022/07/04 10:34:50;;;;;;;;;;;;;;;26.43;48.51;95048.91;5059464;28;963;-75
2022/07/04 10:37:17;;;;;;;;;;;;;;;26.61;48.36;95049.09;5059103;28;1460;-75
2022/07/04 10:39:45;;;;;;;;;;;;;;;26.70;47.86;95047.59;5058333;28;1115;-75
2022/07/04 10:42:14;;;;;;;;;;;;;;;26.72;47.29;95045.09;5058892;28;1250;-75
2022/07/04 10:44:41;;;;;;;;;;;;;;;26.69;47.45;95046.00;5059710;28;1126;-75
2022/07/04 10:47:07;;;;;;;;;;;;;;;26.54;48.07;95040.06;5058400;28;1917;-75
2022/07/04 10:49:35;;;;;;;;;;;;;;;26.64;46.92;95048.19;5058694;28;1241;-75
2022/07/04 10:52:11;;;;;;;;;;;;;;;26.82;46.58;95032.59;5059705;28;990;-75
2022/07/04 10:54:38;;;;;;;;;;;;;;;26.94;46.35;95025.28;5059340;28;1074;-75
2022/07/04 10:57:13;;;;;;;;;;;;;;;26.99;48.12;95013.41;5058832;28;1168;-75
2022/07/04 10:59:40;;;;;;;;;;;;;;;26.98;46.64;95018.28;5058662;28;1396;-75
2022/07/04 11:02:26;;;;;;;;;;;;;;;26.89;47.03;95009.69;5058884;28;1175;-75
2022/07/04 11:04:53;;;;;;;;;;;;;;;27.12;47.08;95014.13;5058620;28;1225;-75
2022/07/04 11:07:20;;;;;;;;;;;;;;;27.37;46.72;95013.16;5058481;28;1976;-75
2022/07/04 11:09:48;;;;;;;;;;;;;;;27.54;45.34;95013.72;5058114;28;1206;-75
2022/07/04 11:12:16;;;;;;;;;;;;;;;27.34;46.78;95009.22;5058444;28;1068;-75
2022/07/04 11:14:43;;;;;;;;;;;;;;;27.14;46.75;95005.97;5058263;28;1257;-74
2022/07/04 11:17:10;;;;;;;;;;;;;;;27.02;46.98;95012.47;5059159;28;1197;-75
2022/07/04 11:19:37;;;;;;;;;;;;;;;26.91;45.80;95012.06;5058108;28;1067;-75
2022/07/04 11:22:05;;;;;;;;;;;;;;;26.82;46.76;95005.09;5058146;28;1080;-75
2022/07/04 11:24:31;;;;;;;;;;;;;;;26.84;47.76;95004.66;5058179;28;1315;-75
2022/07/04 11:26:58;;;;;;;;;;;;;;;26.93;48.01;95007.53;5058138;28;1906;-75
2022/07/04 11:29:25;;;;;;;;;;;;;;;27.04;47.03;95005.09;5057793;28;1261;-75
2022/07/04 11:31:52;;;;;;;;;;;;;;;27.18;46.77;95003.78;5057230;28;1035;-75
2022/07/04 11:34:19;;;;;;;;;;;;;;;27.22;44.34;94998.75;5059191;28;1016;-75
2022/07/04 11:36:46;;;;;;;;;;;;;;;27.12;45.13;95002.78;5058951;28;1039;-75
2022/07/04 11:39:13;;;;;;;;;;;;;;;27.08;45.16;94997.25;5058805;28;1029;-75
2022/07/04 11:47:11;;;;;;;;;;;;;;;27.27;45.71;94986.84;5091527;28;1969;-75
2022/07/04 11:49:41;;;;;;;;;;;;;;;27.28;45.54;94984.81;5057809;28;1173;-75
2022/07/04 11:52:09;;;;;;;;;;;;;;;27.42;45.64;94975.75;5058595;28;1302;-75
2022/07/04 11:54:35;;;;;;;;;;;;;;;27.45;44.41;94972.00;5058381;28;1142;-75
2022/07/04 11:57:12;;;;;;;;;;;;;;;27.49;45.63;94969.81;5057671;28;979;-75
2022/07/04 11:59:40;;;;;;;;;;;;;;;27.65;45.17;94971.59;5057515;28;1143;-75
2022/07/04 12:02:13;;;;;;;;;;;;;;;27.87;45.62;94954.50;5058632;28;943;-75
2022/07/04 12:04:41;;;;;;;;;;;;;;;27.89;46.34;94951.19;5058302;28;1003;-75
2022/07/04 12:07:11;;;;;;;;;;;;;;;27.78;44.20;94946.00;5057988;28;1909;-75
2022/07/04 12:09:37;;;;;;;;;;;;;;;27.75;44.38;94950.56;5057232;28;1110;-75
2022/07/04 12:12:04;;;;;;;;;;;;;;;27.70;45.15;94947.50;5057855;28;1063;-75
2022/07/04 12:14:31;;;;;;;;;;;;;;;27.55;44.99;94947.31;5057172;28;1366;-75
2022/07/04 12:17:25;;;;;;;;;;;;;;;27.44;44.92;94944.91;5057133;28;1108;-75
2022/07/04 12:19:53;;;;;;;;;;;;;;;27.44;48.52;94946.97;5055301;28;1191;-75
2022/07/04 12:22:26;;;;;;;;;;;;;;;27.52;47.26;94942.56;5057985;28;924;-75
2022/07/04 12:24:53;;;;;;;;;;;;;;;27.52;45.17;94939.75;5057228;28;1317;-75
2022/07/04 12:27:19;;;;;;;;;;;;;;;27.69;44.63;94941.06;5057196;28;2005;-75
2022/07/04 12:29:49;;;;;;;;;;;;;;;27.73;45.16;94936.03;5057169;28;1144;-75
2022/07/04 12:32:16;;;;;;;;;;;;;;;27.85;46.57;94942.84;5057844;28;1058;-75
2022/07/04 12:34:42;;;;;;;;;;;;;;;27.94;46.35;94933.59;5057518;28;1007;-75
2022/07/04 12:37:13;;;;;;;;;;;;;;;28.11;44.15;94931.25;5057534;28;1059;-75
2022/07/04 12:39:40;;;;;;;;;;;;;;;28.12;44.48;94927.94;5057417;28;768;-75
2022/07/04 12:42:10;;;;;;;;;;;;;;;27.97;44.60;94926.97;5057563;28;1042;-75
2022/07/04 12:44:37;;;;;;;;;;;;;;;27.81;44.91;94930.88;5057348;28;1030;-75
2022/07/04 12:47:04;;;;;;;;;;;;;;;27.84;45.07;94929.94;5057487;28;1906;-75
2022/07/04 12:49:31;;;;;;;;;;;;;;;27.89;44.30;94943.50;5057497;28;931;-75
2022/07/04 12:52:07;;;;;;;;;;;;;;;27.91;45.50;94932.47;5057269;28;992;-75
2022/07/04 12:54:35;;;;;;;;;;;;;;;28.08;45.57;94930.94;5056745;28;1146;-76
2022/07/04 12:57:11;;;;;;;;;;;;;;;28.33;46.49;94933.94;5057419;28;994;-76
2022/07/04 12:59:38;;;;;;;;;;;;;;;28.45;45.11;94933.00;5057000;28;1036;-76
2022/07/04 13:02:05;;;;;;;;;;;;;;;28.54;44.30;94922.47;5056969;28;1018;-75
2022/07/04 13:04:32;;;;;;;;;;;;;;;28.62;44.18;94916.47;5057152;28;836;-75
2022/07/04 13:07:00;;;;;;;;;;;;;;;28.75;43.30;94920.66;5056395;28;1906;-75
2022/07/04 13:09:27;;;;;;;;;;;;;;;28.63;45.27;94918.81;5056206;28;1072;-76
2022/07/04 13:14:39;;;;;;;;;;;;;;;28.81;44.91;94912.31;5089495;28;1107;-76
2022/07/04 13:17:06;;;;;;;;;;;;;;;28.75;45.13;94908.53;5056857;28;1367;-75
2022/07/04 13:19:32;;;;;;;;;;;;;;;28.87;44.42;94895.41;5055990;28;1059;-75